createdAt,value
2022-08-09T00:01:01.333Z,3.40
2022-08-09T00:04:05.730Z,3.63
2022-08-09T00:06:23.029Z,1.73
2022-08-09T00:08:52.279Z,3.83
2022-08-09T00:11:55.031Z,3.73
2022-08-09T00:14:17.338Z,2.70
2022-08-09T00:16:56.985Z,3.17
2022-08-09T00:19:27.789Z,3.67
2022-08-09T00:21:58.714Z,3.63
2022-08-09T00:24:27.793Z,4.90
2022-08-09T00:26:57.784Z,2.87
2022-08-09T00:30:10.336Z,5.53
2022-08-09T00:32:27.056Z,2.57
2022-08-09T00:34:56.332Z,2.03
2022-08-09T00:37:26.214Z,2.83
2022-08-09T00:40:12.391Z,2.97
2022-08-09T00:44:13.882Z,1.97
2022-08-09T00:45:35.201Z,5.73
2022-08-09T00:48:04.103Z,2.80
2022-08-09T00:50:37.818Z,2.03
2022-08-09T00:53:11.870Z,3.67
2022-08-09T00:56:03.326Z,2.37
2022-08-09T00:58:31.662Z,3.93
2022-08-09T01:01:00.847Z,1.97
2022-08-09T01:03:46.406Z,2.60
2022-08-09T01:06:22.211Z,4.87
2022-08-09T01:09:06.156Z,3.37
2022-08-09T01:11:53.294Z,2.27
2022-08-09T01:14:29.947Z,1.87
2022-08-09T01:17:04.575Z,3.47
2022-08-09T01:19:57.166Z,4.63
2022-08-09T01:22:43.909Z,3.97
2022-08-09T01:25:32.993Z,2.10
2022-08-09T01:28:11.999Z,9.73
2022-08-09T01:30:51.825Z,2.93
2022-08-09T01:33:25.079Z,2.70
2022-08-09T01:36:00.818Z,3.50
2022-08-09T01:38:32.117Z,3.13
2022-08-09T01:41:06.263Z,2.43
2022-08-09T01:43:50.063Z,2.97
2022-08-09T01:46:24.603Z,3.13
2022-08-09T01:48:56.956Z,6.67
2022-08-09T01:51:26.994Z,4.07
2022-08-09T01:54:04.105Z,3.30
2022-08-09T01:56:34.758Z,4.40
2022-08-09T01:59:10.682Z,4.93
2022-08-09T02:01:59.103Z,4.03
2022-08-09T02:04:29.749Z,4.60
2022-08-09T02:07:15.429Z,2.63
2022-08-09T02:09:59.630Z,2.77
2022-08-09T02:12:32.340Z,3.23
2022-08-09T02:15:06.455Z,4.43
2022-08-09T02:17:59.889Z,5.07
2022-08-09T02:20:34.125Z,3.07
2022-08-09T02:23:07.987Z,2.90
2022-08-09T02:25:42.724Z,5.07
2022-08-09T02:28:28.647Z,5.43
2022-08-09T02:31:03.656Z,5.10
2022-08-09T02:34:06.463Z,4.63
2022-08-09T02:36:33.298Z,3.77
2022-08-09T02:39:07.087Z,3.70
2022-08-09T02:41:45.968Z,6.00
2022-08-09T02:44:29.459Z,4.80
2022-08-09T02:47:04.400Z,4.07
2022-08-09T02:49:38.720Z,6.33
2022-08-09T02:52:13.622Z,4.87
2022-08-09T02:54:51.222Z,4.17
2022-08-09T02:57:24.051Z,4.10
2022-08-09T03:00:21.257Z,5.20
2022-08-09T03:02:58.556Z,3.73
2022-08-09T03:05:29.579Z,4.97
2022-08-09T03:08:03.963Z,4.50
2022-08-09T03:10:33.896Z,4.23
2022-08-09T03:13:02.893Z,4.10
2022-08-09T03:16:04.346Z,4.57
2022-08-09T03:18:30.536Z,5.37
2022-08-09T03:21:01.590Z,7.57
2022-08-09T03:23:31.149Z,7.33
2022-08-09T03:26:03.708Z,5.13
2022-08-09T03:28:35.118Z,5.87
2022-08-09T03:31:10.084Z,4.60
2022-08-09T03:33:53.519Z,6.07
2022-08-09T03:36:27.270Z,6.77
2022-08-09T03:38:57.474Z,5.37
2022-08-09T03:41:30.103Z,6.40
2022-08-09T03:44:15.565Z,6.43
2022-08-09T03:46:44.372Z,5.20
2022-08-09T03:49:16.649Z,9.00
2022-08-09T03:51:55.958Z,5.27
2022-08-09T03:54:34.383Z,5.00
2022-08-09T03:57:18.109Z,6.27
2022-08-09T03:59:54.905Z,4.37
2022-08-09T04:02:27.847Z,5.23
2022-08-09T04:05:01.377Z,5.80
2022-08-09T04:07:47.150Z,6.53
2022-08-09T04:10:28.418Z,4.87
2022-08-09T04:13:01.259Z,5.50
2022-08-09T04:16:18.488Z,6.40
2022-08-09T04:18:21.205Z,6.40
2022-08-09T04:20:52.420Z,5.53
2022-08-09T04:23:24.282Z,6.27
2022-08-09T04:25:53.825Z,7.87
2022-08-09T04:28:31.381Z,5.30
2022-08-09T04:31:08.202Z,4.87
2022-08-09T04:33:52.234Z,5.23
2022-08-09T04:36:28.581Z,4.93
2022-08-09T04:39:00.105Z,6.57
2022-08-09T04:41:32.873Z,4.97
2022-08-09T04:44:06.398Z,5.70
2022-08-09T04:46:59.420Z,5.67
2022-08-09T04:49:40.448Z,5.50
2022-08-09T04:52:18.590Z,4.83
2022-08-09T04:54:52.688Z,6.60
2022-08-09T04:57:24.399Z,4.90
2022-08-09T04:59:55.488Z,4.80
2022-08-09T05:02:27.459Z,5.57
2022-08-09T05:04:58.935Z,5.70
2022-08-09T05:07:39.580Z,4.67
2022-08-09T05:10:09.632Z,6.70
2022-08-09T05:12:38.975Z,6.33
2022-08-09T05:15:11.457Z,4.83
2022-08-09T05:18:39.351Z,4.63
2022-08-09T05:20:41.890Z,8.43
2022-08-09T05:23:54.378Z,8.17
2022-08-09T05:26:04.251Z,6.13
2022-08-09T05:28:32.994Z,4.43
2022-08-09T05:31:09.391Z,4.67
2022-08-09T05:33:42.367Z,5.50
2022-08-09T05:36:11.123Z,5.87
2022-08-09T05:38:46.918Z,5.33
2022-08-09T05:41:15.479Z,5.33
2022-08-09T05:43:45.009Z,6.37
2022-08-09T05:46:13.778Z,5.13
2022-08-09T05:48:42.660Z,5.23
2022-08-09T05:51:29.971Z,6.63
2022-08-09T05:54:01.025Z,4.67
2022-08-09T05:56:32.524Z,4.93
2022-08-09T05:59:02.179Z,5.13
2022-08-09T06:01:34.259Z,6.40
2022-08-09T06:04:12.313Z,4.90
2022-08-09T06:06:46.753Z,5.97
2022-08-09T06:09:55.105Z,7.57
2022-08-09T06:12:10.222Z,5.87
2022-08-09T06:14:39.901Z,6.63
2022-08-09T06:17:09.969Z,5.43
2022-08-09T06:19:39.269Z,5.33
2022-08-09T06:22:15.369Z,5.63
2022-08-09T06:24:45.149Z,6.30
2022-08-09T06:27:15.645Z,5.67
2022-08-09T06:29:58.673Z,6.87
2022-08-09T06:32:59.999Z,6.83
2022-08-09T06:35:21.984Z,7.53
2022-08-09T06:38:10.448Z,5.03
2022-08-09T06:40:41.027Z,7.87
2022-08-09T06:43:11.475Z,5.57
2022-08-09T06:46:07.214Z,5.13
2022-08-09T06:48:31.004Z,4.03
2022-08-09T06:51:01.285Z,5.70
2022-08-09T06:53:38.349Z,3.93
2022-08-09T06:56:09.609Z,4.47
2022-08-09T07:00:46.884Z,3.93
2022-08-09T07:01:54.609Z,4.73
2022-08-09T07:04:20.109Z,2.93
2022-08-09T07:06:53.554Z,4.63
2022-08-09T07:09:57.182Z,3.77
2022-08-09T07:12:20.404Z,2.83
2022-08-09T07:14:51.278Z,3.00
2022-08-09T07:17:20.310Z,2.97
2022-08-09T07:19:55.631Z,3.20
2022-08-09T07:22:34.666Z,2.20
2022-08-09T07:25:09.499Z,4.17
2022-08-09T07:27:42.606Z,3.57
2022-08-09T07:30:25.306Z,2.93
2022-08-09T07:32:54.834Z,1.80
2022-08-09T07:35:23.561Z,1.93
2022-08-09T07:37:54.166Z,1.40
2022-08-09T07:40:37.419Z,1.27
2022-08-09T07:43:18.840Z,5.00
2022-08-09T07:45:47.156Z,3.50
2022-08-09T07:48:22.374Z,1.85
2022-08-09T07:51:09.177Z,3.10
2022-08-09T07:54:05.982Z,1.52
2022-08-09T07:56:34.209Z,3.00
2022-08-09T07:59:12.429Z,3.35
2022-08-09T08:01:53.195Z,2.97
2022-08-09T08:04:31.740Z,1.27
2022-08-09T08:07:09.573Z,2.00
2022-08-09T08:10:05.604Z,1.37
2022-08-09T08:12:37.030Z,5.30
2022-08-09T08:15:13.944Z,1.93
2022-08-09T08:17:53.722Z,1.77
2022-08-09T08:20:29.096Z,2.47
2022-08-09T08:23:03.877Z,2.60
2022-08-09T08:25:49.751Z,3.80
2022-08-09T08:28:32.491Z,1.60
2022-08-09T08:31:14.178Z,2.23
2022-08-09T08:33:52.246Z,1.30
2022-08-09T08:36:28.836Z,1.00
2022-08-09T08:38:58.140Z,0.73
2022-08-09T08:41:38.692Z,2.15
2022-08-09T08:44:15.605Z,1.10
2022-08-09T08:47:02.564Z,1.20
2022-08-09T08:49:46.386Z,1.10
2022-08-09T08:52:34.987Z,1.55
2022-08-09T08:55:05.960Z,1.02
2022-08-09T08:57:35.902Z,0.82
2022-08-09T09:00:17.071Z,0.70
2022-08-09T09:03:08.887Z,1.48
2022-08-09T09:05:59.763Z,0.73
2022-08-09T09:08:37.987Z,2.15
2022-08-09T09:11:17.498Z,1.02
2022-08-09T09:13:57.083Z,3.30
2022-08-09T09:16:30.301Z,3.70
2022-08-09T09:19:37.275Z,3.42
2022-08-09T09:22:07.652Z,1.38
2022-08-09T09:24:43.395Z,1.33
2022-08-09T09:28:04.551Z,2.60
2022-08-09T09:30:28.891Z,2.92
2022-08-09T09:33:16.438Z,1.38
2022-08-09T09:36:01.820Z,2.85
2022-08-09T09:38:47.287Z,1.67
2022-08-09T09:41:32.931Z,1.75
2022-08-09T09:44:10.615Z,1.35
2022-08-09T09:46:46.160Z,1.85
2022-08-09T09:49:49.850Z,1.45
2022-08-09T09:52:35.584Z,3.10
2022-08-09T09:55:16.559Z,4.85
2022-08-09T09:58:17.026Z,2.22
2022-08-09T10:00:54.568Z,1.63
2022-08-09T10:03:43.687Z,1.55
2022-08-09T10:06:13.200Z,2.70
2022-08-09T10:08:57.104Z,1.67
2022-08-09T10:12:04.601Z,1.92
2022-08-09T10:14:30.591Z,2.38
2022-08-09T10:17:55.180Z,2.20
2022-08-09T10:20:01.355Z,6.35
2022-08-09T10:22:34.647Z,5.13
2022-08-09T10:25:06.990Z,1.33
2022-08-09T10:27:56.239Z,1.10
2022-08-09T10:34:04.455Z,6.53
2022-08-09T10:36:09.495Z,1.60
2022-08-09T10:38:57.228Z,2.78
2022-08-09T10:41:29.570Z,1.00
2022-08-09T10:44:01.769Z,2.28
2022-08-09T10:47:04.070Z,0.85
2022-08-09T10:49:59.777Z,0.93
2022-08-09T10:52:45.403Z,0.98
2022-08-09T10:55:25.702Z,1.83
2022-08-09T10:58:00.812Z,1.95
2022-08-09T11:00:50.885Z,2.25
2022-08-09T11:03:50.709Z,1.15
2022-08-09T11:06:24.636Z,1.65
2022-08-09T11:08:54.131Z,1.13
2022-08-09T11:11:24.602Z,1.05
2022-08-09T11:14:28.893Z,0.70
2022-08-09T11:17:01.412Z,1.80
2022-08-09T11:20:11.837Z,1.92
2022-08-09T11:23:10.037Z,1.85
2022-08-09T11:25:46.110Z,1.30
2022-08-09T11:28:38.786Z,4.15
2022-08-09T11:31:49.488Z,1.07
2022-08-09T11:34:41.710Z,2.40
2022-08-09T11:37:17.981Z,1.67
2022-08-09T11:40:04.015Z,1.60
2022-08-09T11:42:43.256Z,1.97
2022-08-09T11:45:37.926Z,0.85
2022-08-09T11:48:24.934Z,1.98
2022-08-09T11:51:38.090Z,1.30
2022-08-09T11:54:28.152Z,1.67
2022-08-09T11:57:47.972Z,3.28
2022-08-09T12:00:28.120Z,3.33
2022-08-09T12:02:57.899Z,2.15
2022-08-09T12:05:37.903Z,0.77
2022-08-09T12:08:19.834Z,0.82
2022-08-09T12:10:53.053Z,1.92
2022-08-09T12:14:09.692Z,3.83
2022-08-09T12:16:37.286Z,0.82
2022-08-09T12:19:08.774Z,1.67
2022-08-09T12:21:48.624Z,1.25
2022-08-09T12:24:24.119Z,0.65
2022-08-09T12:28:58.990Z,2.50
2022-08-09T12:30:01.771Z,1.00
2022-08-09T12:32:43.223Z,1.65
2022-08-09T12:35:17.115Z,1.33
2022-08-09T12:37:53.601Z,0.60
2022-08-09T12:40:27.223Z,2.45
2022-08-09T12:42:56.928Z,3.08
2022-08-09T12:45:33.269Z,1.10
2022-08-09T12:48:20.277Z,1.15
2022-08-09T12:50:56.296Z,4.05
2022-08-09T12:53:35.128Z,1.92
2022-08-09T12:56:40.038Z,0.75
2022-08-09T12:59:12.074Z,2.17
2022-08-09T13:01:48.975Z,2.70
2022-08-09T13:04:33.162Z,3.17
2022-08-09T13:07:13.833Z,2.40
2022-08-09T13:09:45.445Z,2.53
2022-08-09T13:12:25.556Z,0.80
2022-08-09T13:14:55.134Z,2.05
2022-08-09T13:18:03.879Z,1.88
2022-08-09T13:20:18.717Z,2.50
2022-08-09T13:23:05.693Z,1.17
2022-08-09T13:25:42.678Z,1.75
2022-08-09T13:28:24.316Z,1.02
2022-08-09T13:32:14.294Z,2.63
2022-08-09T13:33:56.632Z,0.95
2022-08-09T13:36:40.826Z,2.45
2022-08-09T13:41:19.401Z,1.20
2022-08-09T13:42:02.479Z,4.43
2022-08-09T13:44:32.957Z,1.10
2022-08-09T13:47:29.744Z,2.28
2022-08-09T13:49:57.569Z,1.67
2022-08-09T13:52:29.175Z,1.30
2022-08-09T13:54:59.737Z,1.00
2022-08-09T13:57:36.305Z,2.42
2022-08-09T14:00:12.359Z,1.25
2022-08-09T14:02:42.851Z,2.08
2022-08-09T14:05:59.041Z,1.30
2022-08-09T14:08:17.955Z,1.25
2022-08-09T14:10:51.864Z,3.28
2022-08-09T14:13:27.936Z,2.40
2022-08-09T14:16:15.126Z,1.40
2022-08-09T14:18:49.471Z,2.72
2022-08-09T14:21:20.569Z,2.38
2022-08-09T14:23:55.047Z,2.30
2022-08-09T14:26:32.285Z,2.05
2022-08-09T14:29:03.359Z,2.65
2022-08-09T14:31:49.669Z,1.27
2022-08-09T14:34:31.815Z,1.58
2022-08-09T14:37:06.534Z,1.30
2022-08-09T14:39:46.437Z,2.38
2022-08-09T14:42:31.698Z,1.20
2022-08-09T14:46:39.883Z,1.80
2022-08-09T14:47:57.473Z,4.65
2022-08-09T14:50:31.369Z,1.65
2022-08-09T14:53:00.855Z,2.10
2022-08-09T14:55:32.178Z,3.03
2022-08-09T14:58:02.988Z,2.95
2022-08-09T15:00:32.037Z,2.15
2022-08-09T15:03:03.941Z,1.02
2022-08-09T15:05:33.037Z,2.55
2022-08-09T15:08:01.680Z,2.10
2022-08-09T15:10:31.482Z,1.73
2022-08-09T15:13:01.421Z,1.80
2022-08-09T15:15:34.492Z,1.50
2022-08-09T15:18:12.340Z,2.85
2022-08-09T15:21:56.593Z,2.20
2022-08-09T15:24:02.788Z,1.65
2022-08-09T15:26:31.476Z,1.02
2022-08-09T15:29:06.474Z,3.38
2022-08-09T15:31:41.966Z,0.88
2022-08-09T15:34:34.541Z,3.85
2022-08-09T15:37:24.234Z,0.85
2022-08-09T15:40:11.768Z,1.17
2022-08-09T15:42:42.558Z,2.38
2022-08-09T15:45:13.261Z,1.20
2022-08-09T15:47:51.507Z,1.92
2022-08-09T15:50:31.003Z,0.52
2022-08-09T15:53:06.521Z,12.35
2022-08-09T15:56:04.357Z,1.35
2022-08-09T15:58:28.332Z,0.80
2022-08-09T16:00:59.905Z,1.40
2022-08-09T16:03:38.706Z,2.45
2022-08-09T16:06:31.405Z,1.67
2022-08-09T16:09:03.374Z,2.28
2022-08-09T16:11:34.444Z,0.88
2022-08-09T16:14:07.871Z,0.73
2022-08-09T16:16:39.021Z,2.60
2022-08-09T16:19:13.549Z,1.33
2022-08-09T16:21:48.496Z,0.50
2022-08-09T16:24:33.423Z,0.68
2022-08-09T16:27:02.720Z,2.40
2022-08-09T16:29:37.374Z,1.30
2022-08-09T16:32:19.375Z,1.40
2022-08-09T16:34:57.971Z,1.85
2022-08-09T16:37:53.224Z,1.63
2022-08-09T16:40:20.619Z,1.10
2022-08-09T16:43:11.504Z,0.90
2022-08-09T16:45:43.756Z,1.08
2022-08-09T16:48:39.385Z,2.97
2022-08-09T16:51:08.486Z,1.13
2022-08-09T16:54:18.014Z,2.72
2022-08-09T16:56:48.943Z,0.77
2022-08-09T16:59:22.753Z,2.13
2022-08-09T17:01:59.235Z,2.65
2022-08-09T17:04:35.643Z,2.28
2022-08-09T17:08:43.200Z,1.00
2022-08-09T17:10:02.205Z,3.65
2022-08-09T17:12:35.406Z,2.47
2022-08-09T17:15:30.800Z,1.88
2022-08-09T17:17:52.549Z,0.77
2022-08-09T17:20:35.719Z,1.65
2022-08-09T17:23:06.405Z,0.82
2022-08-09T17:25:53.163Z,1.50
2022-08-09T17:28:24.572Z,3.20
2022-08-09T17:30:58.689Z,1.45
2022-08-09T17:33:28.702Z,1.25
2022-08-09T17:36:06.168Z,1.23
2022-08-09T17:38:57.642Z,1.58
2022-08-09T17:41:38.414Z,1.25
2022-08-09T17:44:42.140Z,1.27
2022-08-09T17:46:57.645Z,1.33
2022-08-09T17:49:28.771Z,7.43
2022-08-09T17:52:00.425Z,1.23
2022-08-09T17:54:31.443Z,0.60
2022-08-09T17:57:08.200Z,1.15
2022-08-09T17:59:49.047Z,2.05
2022-08-09T18:02:38.736Z,2.88
2022-08-09T18:05:13.099Z,1.00
2022-08-09T18:07:48.561Z,2.72
2022-08-09T18:10:18.736Z,0.63
2022-08-09T18:13:38.894Z,0.98
2022-08-09T18:16:05.097Z,0.95
2022-08-09T18:18:32.701Z,0.80
2022-08-09T18:21:18.856Z,1.98
2022-08-09T18:24:10.847Z,0.40
2022-08-09T18:26:46.307Z,0.50
2022-08-09T18:30:40.806Z,0.50
2022-08-09T18:32:05.473Z,0.52
2022-08-09T18:34:35.655Z,1.33
2022-08-09T18:37:04.187Z,2.05
2022-08-09T18:39:33.171Z,0.90
2022-08-09T18:42:08.974Z,1.80
2022-08-09T18:44:39.401Z,0.63
2022-08-09T18:47:15.748Z,2.53
2022-08-09T18:49:47.195Z,1.73
2022-08-09T18:52:24.928Z,0.50
2022-08-09T18:55:03.065Z,2.67
2022-08-09T18:57:38.592Z,0.88
2022-08-09T19:00:20.389Z,1.00
2022-08-09T19:02:50.990Z,0.80
2022-08-09T19:05:41.476Z,4.17
2022-08-09T19:08:12.029Z,0.80
2022-08-09T19:10:50.691Z,1.05
2022-08-09T19:13:23.379Z,0.70
2022-08-09T19:16:09.369Z,1.40
2022-08-09T19:18:44.284Z,1.25
2022-08-09T19:21:14.193Z,0.77
2022-08-09T19:24:33.463Z,0.50
2022-08-09T19:26:35.152Z,0.98
2022-08-09T19:29:15.405Z,0.82
2022-08-09T19:31:52.739Z,1.85
2022-08-09T19:34:28.724Z,0.57
2022-08-09T19:36:58.973Z,1.23
2022-08-09T19:40:02.605Z,0.45
2022-08-09T19:42:19.151Z,0.40
2022-08-09T19:44:53.902Z,0.87
2022-08-09T19:47:27.288Z,0.52
2022-08-09T19:50:49.459Z,0.57
2022-08-09T19:52:51.502Z,1.45
2022-08-09T19:55:30.795Z,0.53
2022-08-09T19:58:16.409Z,1.35
2022-08-09T20:00:47.751Z,1.93
2022-08-09T20:04:12.548Z,1.23
2022-08-09T20:06:22.707Z,1.93
2022-08-09T20:08:57.367Z,0.80
2022-08-09T20:11:26.821Z,6.20
2022-08-09T20:13:56.309Z,0.70
2022-08-09T20:16:34.767Z,0.97
2022-08-09T20:19:48.096Z,2.50
2022-08-09T20:22:00.014Z,0.40
2022-08-09T20:24:37.652Z,0.90
2022-08-09T20:27:11.618Z,1.23
2022-08-09T20:29:43.824Z,3.63
2022-08-09T20:32:30.536Z,2.00
2022-08-09T20:35:03.016Z,0.50
2022-08-09T20:38:23.843Z,1.43
2022-08-09T20:40:28.371Z,0.63
2022-08-09T20:43:18.273Z,1.13
2022-08-09T20:46:00.610Z,1.17
2022-08-09T20:48:40.378Z,0.97
2022-08-09T20:51:19.295Z,0.77
2022-08-09T20:53:49.512Z,0.70
2022-08-09T20:56:21.803Z,0.60
2022-08-09T20:58:54.568Z,1.27
2022-08-09T21:01:34.624Z,0.60
2022-08-09T21:05:49.505Z,1.50
2022-08-09T21:07:11.433Z,1.07
2022-08-09T21:09:46.110Z,0.87
2022-08-09T21:15:23.674Z,2.00
2022-08-09T21:18:22.064Z,0.73
2022-08-09T21:20:44.677Z,0.97
2022-08-09T21:23:26.561Z,0.77
2022-08-09T21:26:12.972Z,0.70
2022-08-09T21:28:55.545Z,2.42
2022-08-09T21:31:24.428Z,0.57
2022-08-09T21:34:13.103Z,0.70
2022-08-09T21:36:55.324Z,2.20
2022-08-09T21:39:27.982Z,1.13
2022-08-09T21:42:10.640Z,0.63
2022-08-09T21:44:39.715Z,1.57
2022-08-09T21:47:14.124Z,0.83
2022-08-09T21:49:48.168Z,0.53
2022-08-09T21:52:20.663Z,0.37
2022-08-09T21:55:03.357Z,0.50
2022-08-09T21:57:38.464Z,1.00
2022-08-09T22:00:32.422Z,0.43
2022-08-09T22:03:02.732Z,1.00
2022-08-09T22:05:36.727Z,0.93
2022-08-09T22:08:06.983Z,3.00
2022-08-09T22:11:48.869Z,1.60
2022-08-09T22:13:38.033Z,0.43
2022-08-09T22:16:11.038Z,0.60
2022-08-09T22:18:52.947Z,5.10
2022-08-09T22:21:24.366Z,0.70
2022-08-09T22:23:59.958Z,0.77
2022-08-09T22:26:37.675Z,0.63
2022-08-09T22:29:09.222Z,0.70
2022-08-09T22:31:50.223Z,1.23
2022-08-09T22:34:26.877Z,1.80
2022-08-09T22:36:55.804Z,0.70
2022-08-09T22:39:58.200Z,3.30
2022-08-09T22:42:21.548Z,1.33
2022-08-09T22:45:00.116Z,0.80
2022-08-09T22:48:16.724Z,0.70
2022-08-09T22:50:30.739Z,0.70
2022-08-09T22:52:59.430Z,0.77
2022-08-09T22:56:06.646Z,0.97
2022-08-09T22:58:32.612Z,0.80
2022-08-09T23:01:03.078Z,0.80
2022-08-09T23:04:05.092Z,0.93
2022-08-09T23:06:34.820Z,2.10
2022-08-09T23:09:05.359Z,1.27
2022-08-09T23:11:33.847Z,1.83
2022-08-09T23:14:10.010Z,2.97
2022-08-09T23:16:45.710Z,1.67
2022-08-09T23:19:14.356Z,1.00
2022-08-09T23:21:42.930Z,1.10
2022-08-09T23:24:11.959Z,1.33
2022-08-09T23:26:40.885Z,1.43
2022-08-09T23:29:14.111Z,1.30
2022-08-09T23:31:44.840Z,1.30
2022-08-09T23:34:13.477Z,1.57
2022-08-09T23:36:42.808Z,1.13
2022-08-09T23:39:12.892Z,1.53
2022-08-09T23:41:41.299Z,1.73
2022-08-09T23:44:11.572Z,2.13
2022-08-09T23:46:39.921Z,1.03
2022-08-09T23:49:09.040Z,2.00
2022-08-09T23:51:37.648Z,1.70
2022-08-09T23:54:05.923Z,1.57
2022-08-09T23:56:53.723Z,1.33
2022-08-09T23:59:46.573Z,1.50
